sensor_id;sensor_type;location;lat;lon;timestamp;P1;durP1;ratioP1;P2;durP2;ratioP2
21103;SDS011;10710;53.398;-1.514;2023-12-14T00:02:15;1.13;;;0.82;;
21103;SDS011;10710;53.398;-1.514;2023-12-14T00:04:59;0.20;;;0.20;;
21103;SDS011;10710;53.398;-1.514;2023-12-14T00:07:43;2.40;;;1.10;;
21103;SDS011;10710;53.398;-1.514;2023-12-14T00:10:27;0.30;;;0.30;;
21103;SDS011;10710;53.398;-1.514;2023-12-14T00:13:11;1.65;;;0.85;;
21103;SDS011;10710;53.398;-1.514;2023-12-14T00:15:55;1.00;;;0.90;;
21103;SDS011;10710;53.398;-1.514;2023-12-14T00:18:40;3.85;;;0.73;;
21103;SDS011;10710;53.398;-1.514;2023-12-14T00:21:24;1.57;;;0.80;;
21103;SDS011;10710;53.398;-1.514;2023-12-14T00:24:08;6.40;;;0.70;;
21103;SDS011;10710;53.398;-1.514;2023-12-14T00:26:52;2.10;;;0.40;;
21103;SDS011;10710;53.398;-1.514;2023-12-14T00:29:37;1.95;;;1.63;;
21103;SDS011;10710;53.398;-1.514;2023-12-14T00:32:21;2.07;;;0.80;;
21103;SDS011;10710;53.398;-1.514;2023-12-14T00:35:05;2.65;;;0.73;;
21103;SDS011;10710;53.398;-1.514;2023-12-14T00:37:50;0.50;;;0.50;;
21103;SDS011;10710;53.398;-1.514;2023-12-14T00:40:34;0.80;;;0.63;;
21103;SDS011;10710;53.398;-1.514;2023-12-14T00:43:18;0.90;;;0.63;;
21103;SDS011;10710;53.398;-1.514;2023-12-14T00:46:02;1.42;;;0.65;;
21103;SDS011;10710;53.398;-1.514;2023-12-14T00:48:47;1.05;;;0.65;;
21103;SDS011;10710;53.398;-1.514;2023-12-14T00:51:31;3.50;;;0.70;;
21103;SDS011;10710;53.398;-1.514;2023-12-14T00:54:15;0.40;;;0.40;;
21103;SDS011;10710;53.398;-1.514;2023-12-14T00:56:59;1.10;;;0.63;;
21103;SDS011;10710;53.398;-1.514;2023-12-14T00:59:43;2.17;;;1.08;;
21103;SDS011;10710;53.398;-1.514;2023-12-14T01:02:27;2.38;;;0.82;;
21103;SDS011;10710;53.398;-1.514;2023-12-14T01:05:11;0.90;;;0.50;;
21103;SDS011;10710;53.398;-1.514;2023-12-14T01:07:56;0.75;;;0.70;;
21103;SDS011;10710;53.398;-1.514;2023-12-14T01:10:40;1.20;;;0.50;;
21103;SDS011;10710;53.398;-1.514;2023-12-14T01:13:24;2.50;;;0.40;;
21103;SDS011;10710;53.398;-1.514;2023-12-14T01:16:08;0.77;;;0.70;;
21103;SDS011;10710;53.398;-1.514;2023-12-14T01:18:52;0.50;;;0.50;;
21103;SDS011;10710;53.398;-1.514;2023-12-14T01:21:37;0.30;;;0.20;;
21103;SDS011;10710;53.398;-1.514;2023-12-14T01:24:21;0.90;;;0.70;;
21103;SDS011;10710;53.398;-1.514;2023-12-14T01:27:06;3.40;;;0.60;;
21103;SDS011;10710;53.398;-1.514;2023-12-14T01:29:50;5.45;;;0.52;;
21103;SDS011;10710;53.398;-1.514;2023-12-14T01:32:34;0.80;;;0.73;;
21103;SDS011;10710;53.398;-1.514;2023-12-14T01:35:18;0.55;;;0.55;;
21103;SDS011;10710;53.398;-1.514;2023-12-14T01:38:02;3.13;;;1.02;;
21103;SDS011;10710;53.398;-1.514;2023-12-14T01:40:46;0.60;;;0.60;;
21103;SDS011;10710;53.398;-1.514;2023-12-14T01:43:30;0.60;;;0.30;;
21103;SDS011;10710;53.398;-1.514;2023-12-14T01:46:14;3.47;;;0.50;;
21103;SDS011;10710;53.398;-1.514;2023-12-14T01:49:00;3.13;;;0.60;;
21103;SDS011;10710;53.398;-1.514;2023-12-14T01:51:44;2.10;;;0.32;;
21103;SDS011;10710;53.398;-1.514;2023-12-14T01:54:28;0.30;;;0.30;;
21103;SDS011;10710;53.398;-1.514;2023-12-14T01:57:12;0.40;;;0.40;;
21103;SDS011;10710;53.398;-1.514;2023-12-14T01:59:57;0.73;;;0.30;;
21103;SDS011;10710;53.398;-1.514;2023-12-14T02:02:41;0.63;;;0.32;;
21103;SDS011;10710;53.398;-1.514;2023-12-14T02:05:25;0.82;;;0.32;;
21103;SDS011;10710;53.398;-1.514;2023-12-14T02:08:09;2.08;;;0.30;;
21103;SDS011;10710;53.398;-1.514;2023-12-14T02:10:53;1.90;;;0.52;;
21103;SDS011;10710;53.398;-1.514;2023-12-14T02:13:37;1.48;;;0.45;;
21103;SDS011;10710;53.398;-1.514;2023-12-14T02:16:22;2.05;;;0.35;;
21103;SDS011;10710;53.398;-1.514;2023-12-14T02:19:06;1.95;;;0.50;;
21103;SDS011;10710;53.398;-1.514;2023-12-14T02:21:51;0.55;;;0.55;;
21103;SDS011;10710;53.398;-1.514;2023-12-14T02:24:34;0.45;;;0.25;;
21103;SDS011;10710;53.398;-1.514;2023-12-14T02:27:19;0.30;;;0.30;;
21103;SDS011;10710;53.398;-1.514;2023-12-14T02:30:03;1.30;;;0.55;;
21103;SDS011;10710;53.398;-1.514;2023-12-14T02:32:48;4.13;;;0.90;;
21103;SDS011;10710;53.398;-1.514;2023-12-14T02:35:32;0.68;;;0.60;;
21103;SDS011;10710;53.398;-1.514;2023-12-14T02:38:17;5.90;;;0.85;;
21103;SDS011;10710;53.398;-1.514;2023-12-14T02:41:01;0.85;;;0.50;;
21103;SDS011;10710;53.398;-1.514;2023-12-14T02:43:46;5.00;;;1.05;;
21103;SDS011;10710;53.398;-1.514;2023-12-14T02:46:30;0.60;;;0.52;;
21103;SDS011;10710;53.398;-1.514;2023-12-14T02:49:14;5.93;;;0.67;;
21103;SDS011;10710;53.398;-1.514;2023-12-14T02:51:58;0.50;;;0.40;;
21103;SDS011;10710;53.398;-1.514;2023-12-14T02:54:42;2.45;;;0.50;;
21103;SDS011;10710;53.398;-1.514;2023-12-14T02:57:27;0.70;;;0.30;;
21103;SDS011;10710;53.398;-1.514;2023-12-14T03:00:11;0.88;;;0.68;;
21103;SDS011;10710;53.398;-1.514;2023-12-14T03:02:55;0.30;;;0.30;;
21103;SDS011;10710;53.398;-1.514;2023-12-14T03:05:40;0.40;;;0.40;;
21103;SDS011;10710;53.398;-1.514;2023-12-14T03:08:24;0.60;;;0.60;;
21103;SDS011;10710;53.398;-1.514;2023-12-14T03:11:09;0.57;;;0.32;;
21103;SDS011;10710;53.398;-1.514;2023-12-14T03:13:53;0.70;;;0.40;;
21103;SDS011;10710;53.398;-1.514;2023-12-14T03:16:38;0.75;;;0.50;;
21103;SDS011;10710;53.398;-1.514;2023-12-14T03:19:22;0.50;;;0.50;;
21103;SDS011;10710;53.398;-1.514;2023-12-14T03:22:06;2.92;;;0.82;;
21103;SDS011;10710;53.398;-1.514;2023-12-14T03:24:50;1.30;;;1.00;;
21103;SDS011;10710;53.398;-1.514;2023-12-14T03:27:35;0.55;;;0.45;;
21103;SDS011;10710;53.398;-1.514;2023-12-14T03:30:19;0.57;;;0.47;;
21103;SDS011;10710;53.398;-1.514;2023-12-14T03:33:03;0.90;;;0.70;;
21103;SDS011;10710;53.398;-1.514;2023-12-14T03:35:51;0.80;;;0.60;;
21103;SDS011;10710;53.398;-1.514;2023-12-14T03:38:35;0.70;;;0.70;;
21103;SDS011;10710;53.398;-1.514;2023-12-14T03:41:19;0.50;;;0.50;;
21103;SDS011;10710;53.398;-1.514;2023-12-14T03:44:04;1.70;;;0.60;;
21103;SDS011;10710;53.398;-1.514;2023-12-14T03:46:48;1.45;;;0.70;;
21103;SDS011;10710;53.398;-1.514;2023-12-14T03:49:36;1.50;;;0.80;;
21103;SDS011;10710;53.398;-1.514;2023-12-14T03:52:23;0.50;;;0.40;;
21103;SDS011;10710;53.398;-1.514;2023-12-14T03:55:09;2.70;;;0.63;;
21103;SDS011;10710;53.398;-1.514;2023-12-14T03:57:54;1.70;;;0.30;;
21103;SDS011;10710;53.398;-1.514;2023-12-14T04:00:38;2.40;;;0.60;;
21103;SDS011;10710;53.398;-1.514;2023-12-14T04:03:22;2.08;;;0.60;;
21103;SDS011;10710;53.398;-1.514;2023-12-14T04:06:06;0.85;;;0.70;;
21103;SDS011;10710;53.398;-1.514;2023-12-14T04:08:50;2.70;;;0.88;;
21103;SDS011;10710;53.398;-1.514;2023-12-14T04:11:34;1.10;;;1.00;;
21103;SDS011;10710;53.398;-1.514;2023-12-14T04:14:18;2.38;;;0.88;;
21103;SDS011;10710;53.398;-1.514;2023-12-14T04:17:03;1.90;;;0.68;;
21103;SDS011;10710;53.398;-1.514;2023-12-14T04:19:47;2.72;;;0.88;;
21103;SDS011;10710;53.398;-1.514;2023-12-14T04:22:31;0.30;;;0.30;;
21103;SDS011;10710;53.398;-1.514;2023-12-14T04:25:16;1.65;;;1.10;;
21103;SDS011;10710;53.398;-1.514;2023-12-14T04:27:59;1.42;;;0.95;;
21103;SDS011;10710;53.398;-1.514;2023-12-14T04:30:44;1.85;;;0.77;;
21103;SDS011;10710;53.398;-1.514;2023-12-14T04:33:28;2.88;;;1.50;;
21103;SDS011;10710;53.398;-1.514;2023-12-14T04:36:12;2.10;;;0.88;;
21103;SDS011;10710;53.398;-1.514;2023-12-14T04:38:57;4.30;;;0.80;;
21103;SDS011;10710;53.398;-1.514;2023-12-14T04:41:41;3.45;;;0.60;;
21103;SDS011;10710;53.398;-1.514;2023-12-14T04:44:26;0.80;;;0.50;;
21103;SDS011;10710;53.398;-1.514;2023-12-14T04:47:11;2.05;;;0.90;;
21103;SDS011;10710;53.398;-1.514;2023-12-14T04:49:55;1.05;;;0.50;;
21103;SDS011;10710;53.398;-1.514;2023-12-14T04:52:40;1.27;;;0.70;;
21103;SDS011;10710;53.398;-1.514;2023-12-14T04:55:26;1.25;;;0.77;;
21103;SDS011;10710;53.398;-1.514;2023-12-14T04:58:10;4.00;;;1.00;;
21103;SDS011;10710;53.398;-1.514;2023-12-14T05:00:54;2.25;;;0.93;;
21103;SDS011;10710;53.398;-1.514;2023-12-14T05:03:38;1.20;;;0.90;;
21103;SDS011;10710;53.398;-1.514;2023-12-14T05:06:23;0.68;;;0.60;;
21103;SDS011;10710;53.398;-1.514;2023-12-14T05:09:07;3.97;;;1.38;;
21103;SDS011;10710;53.398;-1.514;2023-12-14T05:11:51;2.60;;;1.00;;
21103;SDS011;10710;53.398;-1.514;2023-12-14T05:14:35;2.40;;;0.63;;
21103;SDS011;10710;53.398;-1.514;2023-12-14T05:17:20;1.60;;;0.60;;
21103;SDS011;10710;53.398;-1.514;2023-12-14T05:20:07;2.80;;;0.82;;
21103;SDS011;10710;53.398;-1.514;2023-12-14T05:22:52;0.75;;;0.38;;
21103;SDS011;10710;53.398;-1.514;2023-12-14T05:25:36;1.35;;;0.90;;
21103;SDS011;10710;53.398;-1.514;2023-12-14T05:28:20;2.50;;;1.00;;
21103;SDS011;10710;53.398;-1.514;2023-12-14T05:31:04;2.58;;;1.77;;
21103;SDS011;10710;53.398;-1.514;2023-12-14T05:33:49;6.50;;;2.45;;
21103;SDS011;10710;53.398;-1.514;2023-12-14T05:36:34;10.98;;;4.07;;
21103;SDS011;10710;53.398;-1.514;2023-12-14T05:39:18;5.55;;;2.28;;
21103;SDS011;10710;53.398;-1.514;2023-12-14T05:42:02;4.50;;;1.92;;
21103;SDS011;10710;53.398;-1.514;2023-12-14T05:44:47;7.22;;;3.05;;
21103;SDS011;10710;53.398;-1.514;2023-12-14T05:47:33;3.95;;;2.53;;
21103;SDS011;10710;53.398;-1.514;2023-12-14T05:50:18;4.10;;;1.60;;
21103;SDS011;10710;53.398;-1.514;2023-12-14T05:53:03;3.60;;;1.60;;
21103;SDS011;10710;53.398;-1.514;2023-12-14T05:55:47;6.63;;;2.60;;
21103;SDS011;10710;53.398;-1.514;2023-12-14T05:58:31;10.05;;;4.13;;
21103;SDS011;10710;53.398;-1.514;2023-12-14T06:01:18;4.40;;;3.13;;
21103;SDS011;10710;53.398;-1.514;2023-12-14T06:04:03;5.87;;;1.10;;
21103;SDS011;10710;53.398;-1.514;2023-12-14T06:06:47;1.98;;;1.00;;
21103;SDS011;10710;53.398;-1.514;2023-12-14T06:09:31;7.72;;;2.58;;
21103;SDS011;10710;53.398;-1.514;2023-12-14T06:12:18;3.08;;;1.70;;
21103;SDS011;10710;53.398;-1.514;2023-12-14T06:15:02;5.22;;;1.70;;
21103;SDS011;10710;53.398;-1.514;2023-12-14T06:17:48;2.33;;;0.60;;
21103;SDS011;10710;53.398;-1.514;2023-12-14T06:20:33;1.88;;;0.60;;
21103;SDS011;10710;53.398;-1.514;2023-12-14T06:23:18;0.88;;;0.80;;
21103;SDS011;10710;53.398;-1.514;2023-12-14T06:26:03;0.98;;;0.57;;
21103;SDS011;10710;53.398;-1.514;2023-12-14T06:28:47;4.43;;;0.43;;
21103;SDS011;10710;53.398;-1.514;2023-12-14T06:31:31;2.78;;;1.08;;
21103;SDS011;10710;53.398;-1.514;2023-12-14T06:34:15;0.57;;;0.57;;
21103;SDS011;10710;53.398;-1.514;2023-12-14T06:37:00;4.90;;;1.00;;
21103;SDS011;10710;53.398;-1.514;2023-12-14T06:39:46;0.55;;;0.55;;
21103;SDS011;10710;53.398;-1.514;2023-12-14T06:42:30;2.22;;;0.60;;
21103;SDS011;10710;53.398;-1.514;2023-12-14T06:45:14;0.57;;;0.57;;
21103;SDS011;10710;53.398;-1.514;2023-12-14T06:47:59;0.80;;;0.60;;
21103;SDS011;10710;53.398;-1.514;2023-12-14T06:50:43;1.90;;;0.95;;
21103;SDS011;10710;53.398;-1.514;2023-12-14T06:53:27;1.27;;;1.10;;
21103;SDS011;10710;53.398;-1.514;2023-12-14T06:56:11;1.50;;;0.60;;
21103;SDS011;10710;53.398;-1.514;2023-12-14T06:58:56;1.30;;;1.00;;
21103;SDS011;10710;53.398;-1.514;2023-12-14T07:01:40;0.60;;;0.60;;
21103;SDS011;10710;53.398;-1.514;2023-12-14T07:04:24;5.88;;;1.15;;
21103;SDS011;10710;53.398;-1.514;2023-12-14T07:07:08;1.67;;;0.90;;
21103;SDS011;10710;53.398;-1.514;2023-12-14T07:09:52;1.48;;;0.95;;
21103;SDS011;10710;53.398;-1.514;2023-12-14T07:12:36;1.63;;;1.00;;
21103;SDS011;10710;53.398;-1.514;2023-12-14T07:15:20;1.10;;;0.88;;
21103;SDS011;10710;53.398;-1.514;2023-12-14T07:18:05;1.57;;;0.70;;
21103;SDS011;10710;53.398;-1.514;2023-12-14T07:20:50;3.07;;;0.97;;
21103;SDS011;10710;53.398;-1.514;2023-12-14T07:23:34;0.70;;;0.70;;
21103;SDS011;10710;53.398;-1.514;2023-12-14T07:26:19;0.80;;;0.70;;
21103;SDS011;10710;53.398;-1.514;2023-12-14T07:29:03;6.07;;;0.73;;
21103;SDS011;10710;53.398;-1.514;2023-12-14T07:31:47;4.70;;;0.73;;
21103;SDS011;10710;53.398;-1.514;2023-12-14T07:34:31;0.40;;;0.40;;
21103;SDS011;10710;53.398;-1.514;2023-12-14T07:37:15;1.02;;;0.70;;
21103;SDS011;10710;53.398;-1.514;2023-12-14T07:39:59;1.05;;;0.70;;
21103;SDS011;10710;53.398;-1.514;2023-12-14T07:42:43;0.73;;;0.60;;
21103;SDS011;10710;53.398;-1.514;2023-12-14T07:45:27;2.53;;;1.30;;
21103;SDS011;10710;53.398;-1.514;2023-12-14T07:48:12;1.83;;;1.25;;
21103;SDS011;10710;53.398;-1.514;2023-12-14T07:50:56;1.58;;;1.05;;
21103;SDS011;10710;53.398;-1.514;2023-12-14T07:53:40;1.20;;;0.70;;
21103;SDS011;10710;53.398;-1.514;2023-12-14T07:56:26;2.50;;;0.90;;
21103;SDS011;10710;53.398;-1.514;2023-12-14T07:59:11;0.73;;;0.70;;
21103;SDS011;10710;53.398;-1.514;2023-12-14T08:01:55;1.88;;;0.80;;
21103;SDS011;10710;53.398;-1.514;2023-12-14T08:04:40;0.80;;;0.67;;
21103;SDS011;10710;53.398;-1.514;2023-12-14T08:07:24;0.65;;;0.50;;
21103;SDS011;10710;53.398;-1.514;2023-12-14T08:10:12;1.53;;;0.70;;
21103;SDS011;10710;53.398;-1.514;2023-12-14T08:12:56;2.53;;;1.08;;
21103;SDS011;10710;53.398;-1.514;2023-12-14T08:15:41;0.60;;;0.52;;
21103;SDS011;10710;53.398;-1.514;2023-12-14T08:18:25;0.30;;;0.30;;
21103;SDS011;10710;53.398;-1.514;2023-12-14T08:21:09;0.70;;;0.50;;
21103;SDS011;10710;53.398;-1.514;2023-12-14T08:23:53;0.65;;;0.52;;
21103;SDS011;10710;53.398;-1.514;2023-12-14T08:26:37;1.02;;;0.80;;
21103;SDS011;10710;53.398;-1.514;2023-12-14T08:29:21;0.98;;;0.85;;
21103;SDS011;10710;53.398;-1.514;2023-12-14T08:32:06;0.80;;;0.50;;
21103;SDS011;10710;53.398;-1.514;2023-12-14T08:34:50;0.70;;;0.70;;
21103;SDS011;10710;53.398;-1.514;2023-12-14T08:37:36;1.70;;;0.88;;
21103;SDS011;10710;53.398;-1.514;2023-12-14T08:40:20;1.38;;;0.70;;
21103;SDS011;10710;53.398;-1.514;2023-12-14T08:43:04;0.90;;;0.40;;
21103;SDS011;10710;53.398;-1.514;2023-12-14T08:45:48;1.50;;;0.60;;
21103;SDS011;10710;53.398;-1.514;2023-12-14T08:48:32;3.83;;;0.77;;
21103;SDS011;10710;53.398;-1.514;2023-12-14T08:51:17;0.60;;;0.57;;
21103;SDS011;10710;53.398;-1.514;2023-12-14T08:54:03;0.50;;;0.50;;
21103;SDS011;10710;53.398;-1.514;2023-12-14T08:56:47;1.10;;;0.90;;
21103;SDS011;10710;53.398;-1.514;2023-12-14T08:59:31;1.67;;;1.20;;
21103;SDS011;10710;53.398;-1.514;2023-12-14T09:02:16;0.60;;;0.60;;
21103;SDS011;10710;53.398;-1.514;2023-12-14T09:05:00;0.60;;;0.60;;
21103;SDS011;10710;53.398;-1.514;2023-12-14T09:07:44;0.50;;;0.50;;
21103;SDS011;10710;53.398;-1.514;2023-12-14T09:10:28;2.87;;;0.43;;
21103;SDS011;10710;53.398;-1.514;2023-12-14T09:13:13;1.23;;;0.80;;
21103;SDS011;10710;53.398;-1.514;2023-12-14T09:15:57;0.90;;;0.70;;
21103;SDS011;10710;53.398;-1.514;2023-12-14T09:18:41;0.55;;;0.55;;
21103;SDS011;10710;53.398;-1.514;2023-12-14T09:21:26;2.95;;;1.00;;
21103;SDS011;10710;53.398;-1.514;2023-12-14T09:24:10;0.65;;;0.65;;
21103;SDS011;10710;53.398;-1.514;2023-12-14T09:26:55;0.80;;;0.60;;
21103;SDS011;10710;53.398;-1.514;2023-12-14T09:29:39;0.50;;;0.50;;
21103;SDS011;10710;53.398;-1.514;2023-12-14T09:32:23;0.40;;;0.40;;
21103;SDS011;10710;53.398;-1.514;2023-12-14T09:35:07;0.68;;;0.68;;
21103;SDS011;10710;53.398;-1.514;2023-12-14T09:37:52;0.93;;;0.50;;
21103;SDS011;10710;53.398;-1.514;2023-12-14T09:40:37;0.75;;;0.47;;
21103;SDS011;10710;53.398;-1.514;2023-12-14T09:43:23;0.80;;;0.80;;
21103;SDS011;10710;53.398;-1.514;2023-12-14T09:46:08;0.50;;;0.50;;
21103;SDS011;10710;53.398;-1.514;2023-12-14T09:48:53;0.30;;;0.30;;
21103;SDS011;10710;53.398;-1.514;2023-12-14T09:51:39;0.70;;;0.45;;
21103;SDS011;10710;53.398;-1.514;2023-12-14T09:54:25;1.60;;;0.57;;
21103;SDS011;10710;53.398;-1.514;2023-12-14T09:57:10;0.40;;;0.40;;
21103;SDS011;10710;53.398;-1.514;2023-12-14T09:59:54;0.35;;;0.32;;
21103;SDS011;10710;53.398;-1.514;2023-12-14T10:02:39;0.60;;;0.60;;
21103;SDS011;10710;53.398;-1.514;2023-12-14T10:05:24;0.43;;;0.43;;
21103;SDS011;10710;53.398;-1.514;2023-12-14T10:08:08;0.93;;;0.63;;
21103;SDS011;10710;53.398;-1.514;2023-12-14T10:10:53;2.53;;;0.90;;
21103;SDS011;10710;53.398;-1.514;2023-12-14T10:13:39;1.90;;;0.97;;
21103;SDS011;10710;53.398;-1.514;2023-12-14T10:16:27;0.55;;;0.43;;
21103;SDS011;10710;53.398;-1.514;2023-12-14T10:19:16;0.55;;;0.50;;
21103;SDS011;10710;53.398;-1.514;2023-12-14T10:22:01;0.43;;;0.43;;
21103;SDS011;10710;53.398;-1.514;2023-12-14T10:24:46;0.65;;;0.65;;
21103;SDS011;10710;53.398;-1.514;2023-12-14T10:27:31;0.52;;;0.45;;
21103;SDS011;10710;53.398;-1.514;2023-12-14T10:30:15;1.08;;;0.47;;
21103;SDS011;10710;53.398;-1.514;2023-12-14T10:33:00;1.00;;;0.80;;
21103;SDS011;10710;53.398;-1.514;2023-12-14T10:35:44;1.00;;;0.70;;
21103;SDS011;10710;53.398;-1.514;2023-12-14T10:38:30;0.70;;;0.60;;
21103;SDS011;10710;53.398;-1.514;2023-12-14T10:41:18;0.40;;;0.40;;
21103;SDS011;10710;53.398;-1.514;2023-12-14T10:44:05;1.10;;;0.60;;
21103;SDS011;10710;53.398;-1.514;2023-12-14T10:46:50;0.75;;;0.65;;
21103;SDS011;10710;53.398;-1.514;2023-12-14T10:49:39;2.27;;;0.50;;
21103;SDS011;10710;53.398;-1.514;2023-12-14T10:52:23;0.93;;;0.70;;
21103;SDS011;10710;53.398;-1.514;2023-12-14T10:55:22;0.40;;;0.40;;
21103;SDS011;10710;53.398;-1.514;2023-12-14T10:58:14;0.70;;;0.65;;
21103;SDS011;10710;53.398;-1.514;2023-12-14T11:00:59;2.70;;;0.70;;
21103;SDS011;10710;53.398;-1.514;2023-12-14T11:03:45;0.50;;;0.50;;
21103;SDS011;10710;53.398;-1.514;2023-12-14T11:06:32;0.98;;;0.88;;
21103;SDS011;10710;53.398;-1.514;2023-12-14T11:09:22;0.88;;;0.77;;
21103;SDS011;10710;53.398;-1.514;2023-12-14T11:12:07;0.50;;;0.50;;
21103;SDS011;10710;53.398;-1.514;2023-12-14T11:14:53;0.50;;;0.50;;
21103;SDS011;10710;53.398;-1.514;2023-12-14T11:17:38;1.53;;;0.53;;
21103;SDS011;10710;53.398;-1.514;2023-12-14T11:20:25;1.00;;;0.90;;
21103;SDS011;10710;53.398;-1.514;2023-12-14T11:23:14;0.60;;;0.60;;
21103;SDS011;10710;53.398;-1.514;2023-12-14T11:26:06;1.05;;;0.95;;
21103;SDS011;10710;53.398;-1.514;2023-12-14T11:28:53;1.27;;;1.08;;
21103;SDS011;10710;53.398;-1.514;2023-12-14T11:31:39;1.85;;;1.05;;
21103;SDS011;10710;53.398;-1.514;2023-12-14T11:34:24;0.90;;;0.80;;
21103;SDS011;10710;53.398;-1.514;2023-12-14T11:37:08;1.60;;;1.15;;
21103;SDS011;10710;53.398;-1.514;2023-12-14T11:39:53;1.00;;;0.80;;
21103;SDS011;10710;53.398;-1.514;2023-12-14T11:42:38;1.35;;;0.88;;
21103;SDS011;10710;53.398;-1.514;2023-12-14T11:45:22;1.07;;;0.90;;
21103;SDS011;10710;53.398;-1.514;2023-12-14T11:48:08;1.23;;;0.85;;
21103;SDS011;10710;53.398;-1.514;2023-12-14T11:50:54;3.85;;;1.25;;
21103;SDS011;10710;53.398;-1.514;2023-12-14T11:53:39;3.55;;;1.38;;
21103;SDS011;10710;53.398;-1.514;2023-12-14T11:56:24;3.60;;;1.35;;
21103;SDS011;10710;53.398;-1.514;2023-12-14T11:59:10;3.38;;;1.52;;
21103;SDS011;10710;53.398;-1.514;2023-12-14T12:01:55;2.90;;;1.65;;
21103;SDS011;10710;53.398;-1.514;2023-12-14T12:04:49;3.30;;;1.70;;
21103;SDS011;10710;53.398;-1.514;2023-12-14T12:07:35;2.47;;;1.38;;
21103;SDS011;10710;53.398;-1.514;2023-12-14T12:10:20;3.95;;;2.05;;
21103;SDS011;10710;53.398;-1.514;2023-12-14T12:13:05;5.70;;;2.33;;
21103;SDS011;10710;53.398;-1.514;2023-12-14T12:15:51;2.60;;;1.57;;
21103;SDS011;10710;53.398;-1.514;2023-12-14T12:18:35;1.52;;;1.00;;
21103;SDS011;10710;53.398;-1.514;2023-12-14T12:21:19;2.30;;;1.50;;
21103;SDS011;10710;53.398;-1.514;2023-12-14T12:24:03;4.35;;;1.25;;
21103;SDS011;10710;53.398;-1.514;2023-12-14T12:26:47;2.72;;;1.55;;
21103;SDS011;10710;53.398;-1.514;2023-12-14T12:29:32;3.00;;;1.52;;
21103;SDS011;10710;53.398;-1.514;2023-12-14T12:32:16;6.88;;;3.17;;
21103;SDS011;10710;53.398;-1.514;2023-12-14T12:35:00;11.85;;;6.53;;
21103;SDS011;10710;53.398;-1.514;2023-12-14T12:37:44;2.30;;;1.40;;
21103;SDS011;10710;53.398;-1.514;2023-12-14T12:40:29;5.50;;;3.55;;
21103;SDS011;10710;53.398;-1.514;2023-12-14T12:43:17;2.35;;;1.40;;
21103;SDS011;10710;53.398;-1.514;2023-12-14T12:46:01;2.55;;;1.65;;
21103;SDS011;10710;53.398;-1.514;2023-12-14T12:48:46;2.38;;;1.73;;
21103;SDS011;10710;53.398;-1.514;2023-12-14T12:51:31;2.42;;;1.35;;
21103;SDS011;10710;53.398;-1.514;2023-12-14T12:54:16;2.47;;;1.60;;
21103;SDS011;10710;53.398;-1.514;2023-12-14T12:57:00;2.85;;;1.65;;
21103;SDS011;10710;53.398;-1.514;2023-12-14T12:59:45;2.50;;;1.83;;
21103;SDS011;10710;53.398;-1.514;2023-12-14T13:02:29;3.25;;;1.80;;
21103;SDS011;10710;53.398;-1.514;2023-12-14T13:05:13;6.35;;;3.50;;
21103;SDS011;10710;53.398;-1.514;2023-12-14T13:07:58;2.70;;;1.70;;
21103;SDS011;10710;53.398;-1.514;2023-12-14T13:10:42;4.43;;;2.55;;
21103;SDS011;10710;53.398;-1.514;2023-12-14T13:13:26;5.72;;;3.55;;
21103;SDS011;10710;53.398;-1.514;2023-12-14T13:16:11;3.65;;;1.90;;
21103;SDS011;10710;53.398;-1.514;2023-12-14T13:19:00;6.75;;;2.97;;
21103;SDS011;10710;53.398;-1.514;2023-12-14T13:21:47;4.30;;;2.00;;
21103;SDS011;10710;53.398;-1.514;2023-12-14T13:24:31;3.65;;;2.00;;
21103;SDS011;10710;53.398;-1.514;2023-12-14T13:27:15;3.03;;;2.22;;
21103;SDS011;10710;53.398;-1.514;2023-12-14T13:30:00;4.07;;;2.42;;
21103;SDS011;10710;53.398;-1.514;2023-12-14T13:32:44;6.00;;;2.70;;
21103;SDS011;10710;53.398;-1.514;2023-12-14T13:35:28;5.75;;;3.28;;
21103;SDS011;10710;53.398;-1.514;2023-12-14T13:38:13;5.57;;;2.95;;
21103;SDS011;10710;53.398;-1.514;2023-12-14T13:40:58;3.80;;;1.73;;
21103;SDS011;10710;53.398;-1.514;2023-12-14T13:43:42;4.28;;;2.05;;
21103;SDS011;10710;53.398;-1.514;2023-12-14T13:46:28;6.25;;;3.13;;
21103;SDS011;10710;53.398;-1.514;2023-12-14T13:49:12;2.80;;;2.35;;
21103;SDS011;10710;53.398;-1.514;2023-12-14T13:51:56;3.05;;;1.67;;
21103;SDS011;10710;53.398;-1.514;2023-12-14T13:54:40;4.13;;;2.10;;
21103;SDS011;10710;53.398;-1.514;2023-12-14T13:57:24;4.07;;;2.28;;
21103;SDS011;10710;53.398;-1.514;2023-12-14T14:00:09;15.75;;;3.20;;
21103;SDS011;10710;53.398;-1.514;2023-12-14T14:02:55;7.15;;;2.92;;
21103;SDS011;10710;53.398;-1.514;2023-12-14T14:05:39;8.00;;;2.03;;
21103;SDS011;10710;53.398;-1.514;2023-12-14T14:08:24;9.27;;;2.63;;
21103;SDS011;10710;53.398;-1.514;2023-12-14T14:11:09;7.40;;;2.58;;
21103;SDS011;10710;53.398;-1.514;2023-12-14T14:13:53;12.40;;;2.63;;
21103;SDS011;10710;53.398;-1.514;2023-12-14T14:16:38;10.13;;;1.70;;
21103;SDS011;10710;53.398;-1.514;2023-12-14T14:19:22;6.18;;;1.80;;
21103;SDS011;10710;53.398;-1.514;2023-12-14T14:22:06;9.00;;;1.80;;
21103;SDS011;10710;53.398;-1.514;2023-12-14T14:24:51;7.80;;;2.50;;
21103;SDS011;10710;53.398;-1.514;2023-12-14T14:27:35;17.58;;;5.20;;
21103;SDS011;10710;53.398;-1.514;2023-12-14T14:30:19;11.35;;;3.28;;
21103;SDS011;10710;53.398;-1.514;2023-12-14T14:33:04;6.65;;;1.30;;
21103;SDS011;10710;53.398;-1.514;2023-12-14T14:35:50;8.07;;;1.73;;
21103;SDS011;10710;53.398;-1.514;2023-12-14T14:38:34;7.53;;;1.93;;
21103;SDS011;10710;53.398;-1.514;2023-12-14T14:41:19;7.78;;;1.75;;
21103;SDS011;10710;53.398;-1.514;2023-12-14T14:44:04;8.90;;;2.30;;
21103;SDS011;10710;53.398;-1.514;2023-12-14T14:46:48;8.82;;;1.63;;
21103;SDS011;10710;53.398;-1.514;2023-12-14T14:49:32;5.75;;;1.90;;
21103;SDS011;10710;53.398;-1.514;2023-12-14T14:52:16;12.27;;;3.13;;
21103;SDS011;10710;53.398;-1.514;2023-12-14T14:55:01;5.85;;;2.00;;
21103;SDS011;10710;53.398;-1.514;2023-12-14T14:57:46;8.23;;;1.90;;
21103;SDS011;10710;53.398;-1.514;2023-12-14T15:00:30;8.32;;;2.40;;
21103;SDS011;10710;53.398;-1.514;2023-12-14T15:03:16;10.25;;;4.65;;
21103;SDS011;10710;53.398;-1.514;2023-12-14T15:06:01;9.75;;;2.92;;
21103;SDS011;10710;53.398;-1.514;2023-12-14T15:08:45;6.65;;;1.92;;
21103;SDS011;10710;53.398;-1.514;2023-12-14T15:11:29;9.73;;;2.42;;
21103;SDS011;10710;53.398;-1.514;2023-12-14T15:14:14;8.68;;;2.72;;
21103;SDS011;10710;53.398;-1.514;2023-12-14T15:16:58;7.55;;;2.90;;
21103;SDS011;10710;53.398;-1.514;2023-12-14T15:19:42;9.13;;;2.70;;
21103;SDS011;10710;53.398;-1.514;2023-12-14T15:22:29;10.65;;;2.50;;
21103;SDS011;10710;53.398;-1.514;2023-12-14T15:25:14;10.27;;;2.33;;
21103;SDS011;10710;53.398;-1.514;2023-12-14T15:28:00;15.27;;;3.07;;
21103;SDS011;10710;53.398;-1.514;2023-12-14T15:30:44;10.02;;;2.75;;
21103;SDS011;10710;53.398;-1.514;2023-12-14T15:33:28;11.38;;;2.83;;
21103;SDS011;10710;53.398;-1.514;2023-12-14T15:36:12;7.03;;;2.77;;
21103;SDS011;10710;53.398;-1.514;2023-12-14T15:38:56;4.88;;;2.78;;
21103;SDS011;10710;53.398;-1.514;2023-12-14T15:41:40;9.95;;;2.88;;
21103;SDS011;10710;53.398;-1.514;2023-12-14T15:44:25;8.35;;;3.03;;
21103;SDS011;10710;53.398;-1.514;2023-12-14T15:47:09;4.30;;;2.88;;
21103;SDS011;10710;53.398;-1.514;2023-12-14T15:49:55;7.63;;;2.85;;
21103;SDS011;10710;53.398;-1.514;2023-12-14T15:52:39;8.57;;;2.47;;
21103;SDS011;10710;53.398;-1.514;2023-12-14T15:55:24;8.77;;;2.92;;
21103;SDS011;10710;53.398;-1.514;2023-12-14T15:58:09;8.15;;;3.17;;
21103;SDS011;10710;53.398;-1.514;2023-12-14T16:00:55;14.05;;;3.00;;
21103;SDS011;10710;53.398;-1.514;2023-12-14T16:03:39;11.13;;;2.75;;
21103;SDS011;10710;53.398;-1.514;2023-12-14T16:06:23;12.80;;;3.17;;
21103;SDS011;10710;53.398;-1.514;2023-12-14T16:09:08;13.25;;;3.50;;
21103;SDS011;10710;53.398;-1.514;2023-12-14T16:11:53;8.25;;;2.78;;
21103;SDS011;10710;53.398;-1.514;2023-12-14T16:14:37;8.80;;;2.35;;
21103;SDS011;10710;53.398;-1.514;2023-12-14T16:17:21;6.47;;;2.40;;